sensor_id;sensor_type;location;lat;lon;timestamp;temperature;humidity
67054;SHT31;53960;51.826;5.850;2023-06-04T00:00:55;15.23;62.55
67054;SHT31;53960;51.826;5.850;2023-06-04T00:03:22;15.14;62.75
67054;SHT31;53960;51.826;5.850;2023-06-04T00:05:48;15.23;62.67
67054;SHT31;53960;51.826;5.850;2023-06-04T00:08:13;15.27;62.61
67054;SHT31;53960;51.826;5.850;2023-06-04T00:10:38;15.27;62.55
67054;SHT31;53960;51.826;5.850;2023-06-04T00:13:05;15.16;62.77
67054;SHT31;53960;51.826;5.850;2023-06-04T00:15:30;15.12;62.84
67054;SHT31;53960;51.826;5.850;2023-06-04T00:17:56;15.03;63.20
67054;SHT31;53960;51.826;5.850;2023-06-04T00:20:21;15.04;63.06
67054;SHT31;53960;51.826;5.850;2023-06-04T00:22:47;14.94;63.36
67054;SHT31;53960;51.826;5.850;2023-06-04T00:25:12;14.98;63.36
67054;SHT31;53960;51.826;5.850;2023-06-04T00:27:37;14.90;63.60
67054;SHT31;53960;51.826;5.850;2023-06-04T00:30:04;14.88;63.60
67054;SHT31;53960;51.826;5.850;2023-06-04T00:32:29;14.91;63.53
67054;SHT31;53960;51.826;5.850;2023-06-04T00:34:55;14.86;63.60
67054;SHT31;53960;51.826;5.850;2023-06-04T00:37:23;14.77;63.80
67054;SHT31;53960;51.826;5.850;2023-06-04T00:39:48;14.75;63.92
67054;SHT31;53960;51.826;5.850;2023-06-04T00:42:14;14.84;63.77
67054;SHT31;53960;51.826;5.850;2023-06-04T00:44:39;14.80;63.80
67054;SHT31;53960;51.826;5.850;2023-06-04T00:47:12;14.69;64.12
67054;SHT31;53960;51.826;5.850;2023-06-04T00:49:38;14.65;64.14
67054;SHT31;53960;51.826;5.850;2023-06-04T00:52:04;14.59;64.33
67054;SHT31;53960;51.826;5.850;2023-06-04T00:54:29;14.56;64.28
67054;SHT31;53960;51.826;5.850;2023-06-04T00:56:55;14.53;64.45
67054;SHT31;53960;51.826;5.850;2023-06-04T00:59:20;14.56;64.21
67054;SHT31;53960;51.826;5.850;2023-06-04T01:02:03;14.48;64.45
67054;SHT31;53960;51.826;5.850;2023-06-04T01:05:03;14.46;64.34
67054;SHT31;53960;51.826;5.850;2023-06-04T01:07:34;14.43;64.47
67054;SHT31;53960;51.826;5.850;2023-06-04T01:10:00;14.33;64.77
67054;SHT31;53960;51.826;5.850;2023-06-04T01:12:26;14.29;65.00
67054;SHT31;53960;51.826;5.850;2023-06-04T01:14:51;14.28;65.11
67054;SHT31;53960;51.826;5.850;2023-06-04T01:17:30;14.28;65.01
67054;SHT31;53960;51.826;5.850;2023-06-04T01:20:14;14.22;65.02
67054;SHT31;53960;51.826;5.850;2023-06-04T01:25:22;14.11;65.17
67054;SHT31;53960;51.826;5.850;2023-06-04T01:27:53;14.09;65.01
67054;SHT31;53960;51.826;5.850;2023-06-04T01:30:34;14.11;64.96
67054;SHT31;53960;51.826;5.850;2023-06-04T01:33:02;14.12;64.81
67054;SHT31;53960;51.826;5.850;2023-06-04T01:35:28;14.15;64.53
67054;SHT31;53960;51.826;5.850;2023-06-04T01:37:56;14.12;64.42
67054;SHT31;53960;51.826;5.850;2023-06-04T01:40:22;14.07;64.60
67054;SHT31;53960;51.826;5.850;2023-06-04T01:42:48;14.01;64.93
67054;SHT31;53960;51.826;5.850;2023-06-04T01:45:13;14.01;64.83
67054;SHT31;53960;51.826;5.850;2023-06-04T01:47:39;13.90;65.17
67054;SHT31;53960;51.826;5.850;2023-06-04T01:50:05;13.84;65.36
67054;SHT31;53960;51.826;5.850;2023-06-04T01:52:35;13.81;65.31
67054;SHT31;53960;51.826;5.850;2023-06-04T01:55:02;13.80;65.08
67054;SHT31;53960;51.826;5.850;2023-06-04T01:57:28;13.84;64.83
67054;SHT31;53960;51.826;5.850;2023-06-04T01:59:53;13.87;64.75
67054;SHT31;53960;51.826;5.850;2023-06-04T02:02:19;13.90;64.55
67054;SHT31;53960;51.826;5.850;2023-06-04T02:04:44;13.81;64.64
67054;SHT31;53960;51.826;5.850;2023-06-04T02:07:10;13.71;64.92
67054;SHT31;53960;51.826;5.850;2023-06-04T02:09:36;13.71;64.75
67054;SHT31;53960;51.826;5.850;2023-06-04T02:12:02;13.74;64.68
67054;SHT31;53960;51.826;5.850;2023-06-04T02:14:27;13.73;64.65
67054;SHT31;53960;51.826;5.850;2023-06-04T02:16:52;13.70;64.53
67054;SHT31;53960;51.826;5.850;2023-06-04T02:19:19;13.66;64.56
67054;SHT31;53960;51.826;5.850;2023-06-04T02:21:45;13.68;64.67
67054;SHT31;53960;51.826;5.850;2023-06-04T02:24:10;13.70;64.36
67054;SHT31;53960;51.826;5.850;2023-06-04T02:26:35;13.75;64.03
67054;SHT31;53960;51.826;5.850;2023-06-04T02:29:01;13.73;63.90
67054;SHT31;53960;51.826;5.850;2023-06-04T02:31:27;13.74;64.03
67054;SHT31;53960;51.826;5.850;2023-06-04T02:33:52;13.74;63.82
67054;SHT31;53960;51.826;5.850;2023-06-04T02:36:17;13.61;64.21
67054;SHT31;53960;51.826;5.850;2023-06-04T02:38:43;13.66;64.09
67054;SHT31;53960;51.826;5.850;2023-06-04T02:41:08;13.66;64.13
67054;SHT31;53960;51.826;5.850;2023-06-04T02:43:34;13.60;64.22
67054;SHT31;53960;51.826;5.850;2023-06-04T02:45:59;13.56;64.39
67054;SHT31;53960;51.826;5.850;2023-06-04T02:48:24;13.49;64.52
67054;SHT31;53960;51.826;5.850;2023-06-04T02:50:50;13.46;64.56
67054;SHT31;53960;51.826;5.850;2023-06-04T02:53:15;13.42;64.53
67054;SHT31;53960;51.826;5.850;2023-06-04T02:55:40;13.35;64.94
67054;SHT31;53960;51.826;5.850;2023-06-04T02:58:07;13.35;64.83
67054;SHT31;53960;51.826;5.850;2023-06-04T03:00:34;13.35;64.90
67054;SHT31;53960;51.826;5.850;2023-06-04T03:03:00;13.33;64.99
67054;SHT31;53960;51.826;5.850;2023-06-04T03:05:28;13.19;65.32
67054;SHT31;53960;51.826;5.850;2023-06-04T03:07:55;13.13;65.31
67054;SHT31;53960;51.826;5.850;2023-06-04T03:10:22;13.12;65.55
67054;SHT31;53960;51.826;5.850;2023-06-04T03:12:48;13.10;65.49
67054;SHT31;53960;51.826;5.850;2023-06-04T03:15:13;13.18;65.30
67054;SHT31;53960;51.826;5.850;2023-06-04T03:17:40;13.20;65.41
67054;SHT31;53960;51.826;5.850;2023-06-04T03:20:06;13.15;65.50
67054;SHT31;53960;51.826;5.850;2023-06-04T03:22:32;13.15;65.48
67054;SHT31;53960;51.826;5.850;2023-06-04T03:24:58;13.13;65.46
67054;SHT31;53960;51.826;5.850;2023-06-04T03:27:24;13.16;65.41
67054;SHT31;53960;51.826;5.850;2023-06-04T03:29:49;13.10;65.38
67054;SHT31;53960;51.826;5.850;2023-06-04T03:32:15;13.09;65.35
67054;SHT31;53960;51.826;5.850;2023-06-04T03:34:41;13.02;65.69
67054;SHT31;53960;51.826;5.850;2023-06-04T03:37:06;12.99;65.74
67054;SHT31;53960;51.826;5.850;2023-06-04T03:39:31;13.08;65.42
67054;SHT31;53960;51.826;5.850;2023-06-04T03:41:57;12.96;65.83
67054;SHT31;53960;51.826;5.850;2023-06-04T03:44:22;12.91;66.04
67054;SHT31;53960;51.826;5.850;2023-06-04T03:46:48;12.87;66.13
67054;SHT31;53960;51.826;5.850;2023-06-04T03:49:13;12.93;65.80
67054;SHT31;53960;51.826;5.850;2023-06-04T03:51:39;12.92;65.82
67054;SHT31;53960;51.826;5.850;2023-06-04T03:54:05;12.88;65.88
67054;SHT31;53960;51.826;5.850;2023-06-04T03:56:30;12.87;65.98
67054;SHT31;53960;51.826;5.850;2023-06-04T03:58:56;12.88;66.14
67054;SHT31;53960;51.826;5.850;2023-06-04T04:01:22;12.89;66.23
67054;SHT31;53960;51.826;5.850;2023-06-04T04:03:49;12.92;66.25
67054;SHT31;53960;51.826;5.850;2023-06-04T04:06:15;12.92;66.36
67054;SHT31;53960;51.826;5.850;2023-06-04T04:08:40;12.92;66.24
67054;SHT31;53960;51.826;5.850;2023-06-04T04:11:16;12.93;66.29
67054;SHT31;53960;51.826;5.850;2023-06-04T04:13:42;12.85;66.56
67054;SHT31;53960;51.826;5.850;2023-06-04T04:16:07;12.81;66.88
67054;SHT31;53960;51.826;5.850;2023-06-04T04:18:33;12.84;66.86
67054;SHT31;53960;51.826;5.850;2023-06-04T04:20:59;12.81;67.03
67054;SHT31;53960;51.826;5.850;2023-06-04T04:23:24;12.87;66.95
67054;SHT31;53960;51.826;5.850;2023-06-04T04:25:50;12.81;66.86
67054;SHT31;53960;51.826;5.850;2023-06-04T04:28:15;12.84;67.23
67054;SHT31;53960;51.826;5.850;2023-06-04T04:30:42;12.92;67.25
67054;SHT31;53960;51.826;5.850;2023-06-04T04:33:07;12.92;67.10
67054;SHT31;53960;51.826;5.850;2023-06-04T04:35:33;12.92;67.37
67054;SHT31;53960;51.826;5.850;2023-06-04T04:37:59;12.87;67.41
67054;SHT31;53960;51.826;5.850;2023-06-04T04:40:28;12.82;67.73
67054;SHT31;53960;51.826;5.850;2023-06-04T04:42:54;12.95;67.50
67054;SHT31;53960;51.826;5.850;2023-06-04T04:45:19;12.91;67.86
67054;SHT31;53960;51.826;5.850;2023-06-04T04:47:44;12.95;67.91
67054;SHT31;53960;51.826;5.850;2023-06-04T04:50:10;12.99;67.76
67054;SHT31;53960;51.826;5.850;2023-06-04T04:52:35;13.03;67.81
67054;SHT31;53960;51.826;5.850;2023-06-04T04:55:01;13.02;67.81
67054;SHT31;53960;51.826;5.850;2023-06-04T04:57:26;12.91;68.22
67054;SHT31;53960;51.826;5.850;2023-06-04T04:59:52;12.95;68.20
67054;SHT31;53960;51.826;5.850;2023-06-04T05:02:17;12.88;68.53
67054;SHT31;53960;51.826;5.850;2023-06-04T05:04:42;12.92;68.65
67054;SHT31;53960;51.826;5.850;2023-06-04T05:07:08;13.01;68.36
67054;SHT31;53960;51.826;5.850;2023-06-04T05:09:33;13.02;68.38
67054;SHT31;53960;51.826;5.850;2023-06-04T05:11:58;13.01;68.85
67054;SHT31;53960;51.826;5.850;2023-06-04T05:14:24;13.06;68.51
67054;SHT31;53960;51.826;5.850;2023-06-04T05:16:49;13.02;68.67
67054;SHT31;53960;51.826;5.850;2023-06-04T05:19:18;13.05;68.78
67054;SHT31;53960;51.826;5.850;2023-06-04T05:21:43;13.19;68.67
67054;SHT31;53960;51.826;5.850;2023-06-04T05:24:09;13.29;68.41
67054;SHT31;53960;51.826;5.850;2023-06-04T05:26:35;13.33;68.30
67054;SHT31;53960;51.826;5.850;2023-06-04T05:29:01;13.36;68.16
67054;SHT31;53960;51.826;5.850;2023-06-04T05:31:27;13.33;68.52
67054;SHT31;53960;51.826;5.850;2023-06-04T05:33:52;13.33;68.50
67054;SHT31;53960;51.826;5.850;2023-06-04T05:36:17;13.38;68.43
67054;SHT31;53960;51.826;5.850;2023-06-04T05:38:43;13.42;68.53
67054;SHT31;53960;51.826;5.850;2023-06-04T05:41:08;13.40;68.67
67054;SHT31;53960;51.826;5.850;2023-06-04T05:43:33;13.40;68.64
67054;SHT31;53960;51.826;5.850;2023-06-04T05:45:59;13.46;68.80
67054;SHT31;53960;51.826;5.850;2023-06-04T05:48:25;13.44;69.12
67054;SHT31;53960;51.826;5.850;2023-06-04T05:50:50;13.53;68.79
67054;SHT31;53960;51.826;5.850;2023-06-04T05:53:15;13.60;68.83
67054;SHT31;53960;51.826;5.850;2023-06-04T05:55:41;13.59;68.73
67054;SHT31;53960;51.826;5.850;2023-06-04T05:58:06;13.56;69.02
67054;SHT31;53960;51.826;5.850;2023-06-04T06:00:32;13.61;68.66
67054;SHT31;53960;51.826;5.850;2023-06-04T06:02:57;13.61;68.75
67054;SHT31;53960;51.826;5.850;2023-06-04T06:05:23;13.75;68.57
67054;SHT31;53960;51.826;5.850;2023-06-04T06:07:48;13.75;68.42
67054;SHT31;53960;51.826;5.850;2023-06-04T06:10:14;13.80;68.75
67054;SHT31;53960;51.826;5.850;2023-06-04T06:12:41;13.81;68.23
67054;SHT31;53960;51.826;5.850;2023-06-04T06:15:06;13.92;68.17
67054;SHT31;53960;51.826;5.850;2023-06-04T06:17:32;13.98;68.20
67054;SHT31;53960;51.826;5.850;2023-06-04T06:19:58;14.04;68.42
67054;SHT31;53960;51.826;5.850;2023-06-04T06:22:23;14.08;68.35
67054;SHT31;53960;51.826;5.850;2023-06-04T06:24:48;14.18;68.14
67054;SHT31;53960;51.826;5.850;2023-06-04T06:27:14;14.21;67.87
67054;SHT31;53960;51.826;5.850;2023-06-04T06:29:41;14.12;67.64
67054;SHT31;53960;51.826;5.850;2023-06-04T06:32:07;14.25;67.29
67054;SHT31;53960;51.826;5.850;2023-06-04T06:34:32;14.40;67.46
67054;SHT31;53960;51.826;5.850;2023-06-04T06:36:58;14.52;67.92
67054;SHT31;53960;51.826;5.850;2023-06-04T06:39:23;14.59;67.09
67054;SHT31;53960;51.826;5.850;2023-06-04T06:41:49;14.69;67.23
67054;SHT31;53960;51.826;5.850;2023-06-04T06:44:14;14.79;66.76
67054;SHT31;53960;51.826;5.850;2023-06-04T06:46:39;14.80;66.64
67054;SHT31;53960;51.826;5.850;2023-06-04T06:49:05;14.86;66.30
67054;SHT31;53960;51.826;5.850;2023-06-04T06:51:30;14.91;65.61
67054;SHT31;53960;51.826;5.850;2023-06-04T06:53:56;15.06;66.04
67054;SHT31;53960;51.826;5.850;2023-06-04T06:56:21;15.18;65.97
67054;SHT31;53960;51.826;5.850;2023-06-04T06:58:47;15.18;65.67
67054;SHT31;53960;51.826;5.850;2023-06-04T07:01:13;15.21;65.00
67054;SHT31;53960;51.826;5.850;2023-06-04T07:03:38;15.25;65.65
67054;SHT31;53960;51.826;5.850;2023-06-04T07:06:05;15.20;64.63
67054;SHT31;53960;51.826;5.850;2023-06-04T07:08:31;15.28;65.37
67054;SHT31;53960;51.826;5.850;2023-06-04T07:10:56;15.35;65.58
67054;SHT31;53960;51.826;5.850;2023-06-04T07:13:22;15.49;65.42
67054;SHT31;53960;51.826;5.850;2023-06-04T07:15:47;15.59;65.07
67054;SHT31;53960;51.826;5.850;2023-06-04T07:18:12;15.69;64.35
67054;SHT31;53960;51.826;5.850;2023-06-04T07:20:38;15.70;64.26
67054;SHT31;53960;51.826;5.850;2023-06-04T07:23:03;15.85;65.06
67054;SHT31;53960;51.826;5.850;2023-06-04T07:25:28;15.95;64.13
67054;SHT31;53960;51.826;5.850;2023-06-04T07:27:54;16.05;63.42
67054;SHT31;53960;51.826;5.850;2023-06-04T07:30:23;16.13;62.83
67054;SHT31;53960;51.826;5.850;2023-06-04T07:32:48;16.16;62.40
67054;SHT31;53960;51.826;5.850;2023-06-04T07:35:14;16.21;61.64
67054;SHT31;53960;51.826;5.850;2023-06-04T07:37:39;16.23;61.16
67054;SHT31;53960;51.826;5.850;2023-06-04T07:40:05;16.33;61.89
67054;SHT31;53960;51.826;5.850;2023-06-04T07:42:31;16.41;61.74
67054;SHT31;53960;51.826;5.850;2023-06-04T07:44:56;16.54;61.38
67054;SHT31;53960;51.826;5.850;2023-06-04T07:47:21;16.51;60.76
67054;SHT31;53960;51.826;5.850;2023-06-04T07:49:47;16.61;60.08
67054;SHT31;53960;51.826;5.850;2023-06-04T07:52:12;16.61;59.93
67054;SHT31;53960;51.826;5.850;2023-06-04T07:54:38;16.75;60.38
67054;SHT31;53960;51.826;5.850;2023-06-04T07:57:06;16.92;60.46
67054;SHT31;53960;51.826;5.850;2023-06-04T07:59:31;17.12;59.64
67054;SHT31;53960;51.826;5.850;2023-06-04T08:01:57;17.26;60.36
67054;SHT31;53960;51.826;5.850;2023-06-04T08:04:22;17.27;59.93
67054;SHT31;53960;51.826;5.850;2023-06-04T08:06:47;17.22;60.07
67054;SHT31;53960;51.826;5.850;2023-06-04T08:09:13;17.27;60.98
67054;SHT31;53960;51.826;5.850;2023-06-04T08:11:39;17.34;60.09
67054;SHT31;53960;51.826;5.850;2023-06-04T08:14:04;17.33;60.11
67054;SHT31;53960;51.826;5.850;2023-06-04T08:16:31;17.40;60.19
67054;SHT31;53960;51.826;5.850;2023-06-04T08:18:57;17.46;60.10
67054;SHT31;53960;51.826;5.850;2023-06-04T08:21:28;17.70;60.51
67054;SHT31;53960;51.826;5.850;2023-06-04T08:23:54;17.77;57.75
67054;SHT31;53960;51.826;5.850;2023-06-04T08:26:20;17.85;57.31
67054;SHT31;53960;51.826;5.850;2023-06-04T08:28:49;17.94;57.32
67054;SHT31;53960;51.826;5.850;2023-06-04T08:31:14;18.00;56.06
67054;SHT31;53960;51.826;5.850;2023-06-04T08:33:40;18.01;57.13
67054;SHT31;53960;51.826;5.850;2023-06-04T08:36:06;18.11;57.79
67054;SHT31;53960;51.826;5.850;2023-06-04T08:38:31;18.26;58.16
67054;SHT31;53960;51.826;5.850;2023-06-04T08:41:02;18.22;57.13
67054;SHT31;53960;51.826;5.850;2023-06-04T08:43:32;18.24;56.48
67054;SHT31;53960;51.826;5.850;2023-06-04T08:45:59;18.33;57.00
67054;SHT31;53960;51.826;5.850;2023-06-04T08:48:28;18.38;57.31
67054;SHT31;53960;51.826;5.850;2023-06-04T08:50:55;18.45;56.38
67054;SHT31;53960;51.826;5.850;2023-06-04T08:53:21;18.33;55.34
67054;SHT31;53960;51.826;5.850;2023-06-04T08:55:49;18.46;56.14
67054;SHT31;53960;51.826;5.850;2023-06-04T08:58:16;18.60;56.63
67054;SHT31;53960;51.826;5.850;2023-06-04T09:00:42;18.72;55.74
67054;SHT31;53960;51.826;5.850;2023-06-04T09:03:07;18.77;55.91
67054;SHT31;53960;51.826;5.850;2023-06-04T09:05:34;18.83;53.25
67054;SHT31;53960;51.826;5.850;2023-06-04T09:08:00;18.93;54.33
67054;SHT31;53960;51.826;5.850;2023-06-04T09:10:26;19.08;54.11
67054;SHT31;53960;51.826;5.850;2023-06-04T09:12:57;19.18;53.84
67054;SHT31;53960;51.826;5.850;2023-06-04T09:15:24;19.25;53.96
67054;SHT31;53960;51.826;5.850;2023-06-04T09:17:49;19.35;53.38
67054;SHT31;53960;51.826;5.850;2023-06-04T09:20:22;19.42;53.71
67054;SHT31;53960;51.826;5.850;2023-06-04T09:22:48;19.41;51.98
67054;SHT31;53960;51.826;5.850;2023-06-04T09:25:27;19.48;51.56
67054;SHT31;53960;51.826;5.850;2023-06-04T09:27:58;19.44;52.23
67054;SHT31;53960;51.826;5.850;2023-06-04T09:30:30;19.54;51.79
67054;SHT31;53960;51.826;5.850;2023-06-04T09:33:06;19.73;51.25
67054;SHT31;53960;51.826;5.850;2023-06-04T09:35:31;19.89;49.47
67054;SHT31;53960;51.826;5.850;2023-06-04T09:37:57;20.00;49.76
67054;SHT31;53960;51.826;5.850;2023-06-04T09:40:23;20.06;48.67
67054;SHT31;53960;51.826;5.850;2023-06-04T09:42:50;20.05;47.18
67054;SHT31;53960;51.826;5.850;2023-06-04T09:45:34;20.14;48.86
67054;SHT31;53960;51.826;5.850;2023-06-04T09:48:01;20.23;49.71
67054;SHT31;53960;51.826;5.850;2023-06-04T09:50:29;20.33;45.30
67054;SHT31;53960;51.826;5.850;2023-06-04T09:52:55;20.41;46.26
67054;SHT31;53960;51.826;5.850;2023-06-04T09:55:21;20.52;43.91
67054;SHT31;53960;51.826;5.850;2023-06-04T09:57:48;20.57;44.33
67054;SHT31;53960;51.826;5.850;2023-06-04T10:00:19;20.71;43.09
67054;SHT31;53960;51.826;5.850;2023-06-04T10:02:46;20.75;39.78
67054;SHT31;53960;51.826;5.850;2023-06-04T10:05:13;20.72;41.33
67054;SHT31;53960;51.826;5.850;2023-06-04T10:07:45;20.69;41.34
67054;SHT31;53960;51.826;5.850;2023-06-04T10:10:16;20.75;42.81
67054;SHT31;53960;51.826;5.850;2023-06-04T10:12:42;20.84;42.77
67054;SHT31;53960;51.826;5.850;2023-06-04T10:15:12;20.89;43.02
67054;SHT31;53960;51.826;5.850;2023-06-04T10:17:38;21.09;40.96
67054;SHT31;53960;51.826;5.850;2023-06-04T10:20:06;21.19;42.38
67054;SHT31;53960;51.826;5.850;2023-06-04T10:22:33;21.26;42.47
67054;SHT31;53960;51.826;5.850;2023-06-04T10:24:59;21.28;41.50
67054;SHT31;53960;51.826;5.850;2023-06-04T10:27:25;21.26;42.86
67054;SHT31;53960;51.826;5.850;2023-06-04T10:29:51;21.26;41.49
67054;SHT31;53960;51.826;5.850;2023-06-04T10:32:17;21.29;41.66
67054;SHT31;53960;51.826;5.850;2023-06-04T10:34:43;21.28;42.42
67054;SHT31;53960;51.826;5.850;2023-06-04T10:37:21;21.32;41.80
67054;SHT31;53960;51.826;5.850;2023-06-04T10:39:55;21.47;41.91
67054;SHT31;53960;51.826;5.850;2023-06-04T10:42:21;21.63;43.09
67054;SHT31;53960;51.826;5.850;2023-06-04T10:44:48;21.67;40.07
67054;SHT31;53960;51.826;5.850;2023-06-04T10:47:21;21.66;40.15
67054;SHT31;53960;51.826;5.850;2023-06-04T10:49:47;21.74;41.09
67054;SHT31;53960;51.826;5.850;2023-06-04T10:52:12;21.71;39.73
67054;SHT31;53960;51.826;5.850;2023-06-04T10:54:38;21.91;41.14
67054;SHT31;53960;51.826;5.850;2023-06-04T10:57:16;22.04;41.88
67054;SHT31;53960;51.826;5.850;2023-06-04T10:59:56;22.21;41.68
67054;SHT31;53960;51.826;5.850;2023-06-04T11:02:22;22.26;40.87
67054;SHT31;53960;51.826;5.850;2023-06-04T11:05:07;22.05;39.16
67054;SHT31;53960;51.826;5.850;2023-06-04T11:07:45;22.05;39.90
67054;SHT31;53960;51.826;5.850;2023-06-04T11:10:12;22.12;39.75
67054;SHT31;53960;51.826;5.850;2023-06-04T11:12:48;22.05;38.24
67054;SHT31;53960;51.826;5.850;2023-06-04T11:15:16;22.05;39.54
67054;SHT31;53960;51.826;5.850;2023-06-04T11:17:54;22.11;39.44
67054;SHT31;53960;51.826;5.850;2023-06-04T11:20:20;22.11;39.73
67054;SHT31;53960;51.826;5.850;2023-06-04T11:22:57;22.32;39.81
67054;SHT31;53960;51.826;5.850;2023-06-04T11:25:24;22.45;40.13
67054;SHT31;53960;51.826;5.850;2023-06-04T11:27:52;22.41;38.42
67054;SHT31;53960;51.826;5.850;2023-06-04T11:30:18;22.41;37.47
67054;SHT31;53960;51.826;5.850;2023-06-04T11:32:43;22.45;37.92
67054;SHT31;53960;51.826;5.850;2023-06-04T11:35:09;22.60;38.86
67054;SHT31;53960;51.826;5.850;2023-06-04T11:37:36;22.75;38.37
67054;SHT31;53960;51.826;5.850;2023-06-04T11:40:02;22.73;38.31
67054;SHT31;53960;51.826;5.850;2023-06-04T11:42:30;22.83;38.22
67054;SHT31;53960;51.826;5.850;2023-06-04T11:44:56;22.82;37.19
67054;SHT31;53960;51.826;5.850;2023-06-04T11:47:23;22.75;37.40
67054;SHT31;53960;51.826;5.850;2023-06-04T11:49:54;22.62;37.74
67054;SHT31;53960;51.826;5.850;2023-06-04T11:52:20;22.69;37.86
67054;SHT31;53960;51.826;5.850;2023-06-04T11:54:46;22.76;36.27
67054;SHT31;53960;51.826;5.850;2023-06-04T11:57:11;22.89;37.25
67054;SHT31;53960;51.826;5.850;2023-06-04T11:59:37;22.96;37.81
67054;SHT31;53960;51.826;5.850;2023-06-04T12:02:03;22.87;37.22
67054;SHT31;53960;51.826;5.850;2023-06-04T12:04:30;22.89;38.07
67054;SHT31;53960;51.826;5.850;2023-06-04T12:06:57;22.84;38.06
67054;SHT31;53960;51.826;5.850;2023-06-04T12:09:25;23.04;38.78
67054;SHT31;53960;51.826;5.850;2023-06-04T12:12:00;23.02;37.84
67054;SHT31;53960;51.826;5.850;2023-06-04T12:14:27;23.00;38.25
67054;SHT31;53960;51.826;5.850;2023-06-04T12:16:59;22.94;38.08
67054;SHT31;53960;51.826;5.850;2023-06-04T12:19:25;23.03;37.49
67054;SHT31;53960;51.826;5.850;2023-06-04T12:22:03;23.18;37.47
67054;SHT31;53960;51.826;5.850;2023-06-04T12:24:30;23.13;37.30
67054;SHT31;53960;51.826;5.850;2023-06-04T12:27:06;23.23;38.03
67054;SHT31;53960;51.826;5.850;2023-06-04T12:29:33;23.34;38.08
67054;SHT31;53960;51.826;5.850;2023-06-04T12:32:03;23.47;39.09
67054;SHT31;53960;51.826;5.850;2023-06-04T12:34:40;23.25;36.94
67054;SHT31;53960;51.826;5.850;2023-06-04T12:37:06;23.28;37.39
67054;SHT31;53960;51.826;5.850;2023-06-04T12:39:33;23.35;36.88
67054;SHT31;53960;51.826;5.850;2023-06-04T12:41:59;23.45;37.80
67054;SHT31;53960;51.826;5.850;2023-06-04T12:44:25;23.47;37.24
67054;SHT31;53960;51.826;5.850;2023-06-04T12:46:50;23.37;36.56
67054;SHT31;53960;51.826;5.850;2023-06-04T12:49:16;23.38;37.54
67054;SHT31;53960;51.826;5.850;2023-06-04T12:51:41;23.50;38.05
67054;SHT31;53960;51.826;5.850;2023-06-04T12:54:06;23.52;36.81
67054;SHT31;53960;51.826;5.850;2023-06-04T12:56:32;23.41;36.96
67054;SHT31;53960;51.826;5.850;2023-06-04T12:58:57;23.45;37.25
67054;SHT31;53960;51.826;5.850;2023-06-04T13:01:22;23.57;38.37
67054;SHT31;53960;51.826;5.850;2023-06-04T13:03:48;23.66;37.16
67054;SHT31;53960;51.826;5.850;2023-06-04T13:06:13;23.68;37.23
67054;SHT31;53960;51.826;5.850;2023-06-04T13:08:38;23.69;36.94
67054;SHT31;53960;51.826;5.850;2023-06-04T13:11:04;23.71;36.86
67054;SHT31;53960;51.826;5.850;2023-06-04T13:13:30;23.68;36.77
67054;SHT31;53960;51.826;5.850;2023-06-04T13:15:56;23.83;38.22
67054;SHT31;53960;51.826;5.850;2023-06-04T13:18:22;23.95;38.10
67054;SHT31;53960;51.826;5.850;2023-06-04T13:20:47;23.73;37.08
67054;SHT31;53960;51.826;5.850;2023-06-04T13:23:14;23.73;37.00
67054;SHT31;53960;51.826;5.850;2023-06-04T13:25:40;23.82;37.64
67054;SHT31;53960;51.826;5.850;2023-06-04T13:28:05;23.88;37.69
67054;SHT31;53960;51.826;5.850;2023-06-04T13:30:31;23.90;37.76
67054;SHT31;53960;51.826;5.850;2023-06-04T13:32:56;24.02;38.29
67054;SHT31;53960;51.826;5.850;2023-06-04T13:35:23;23.93;37.43
67054;SHT31;53960;51.826;5.850;2023-06-04T13:37:49;23.88;37.80
67054;SHT31;53960;51.826;5.850;2023-06-04T13:40:14;23.85;37.68
67054;SHT31;53960;51.826;5.850;2023-06-04T13:42:40;24.05;39.30
67054;SHT31;53960;51.826;5.850;2023-06-04T13:45:06;24.09;38.76
67054;SHT31;53960;51.826;5.850;2023-06-04T13:47:31;24.14;37.63
67054;SHT31;53960;51.826;5.850;2023-06-04T13:49:58;24.22;37.71
67054;SHT31;53960;51.826;5.850;2023-06-04T13:52:23;24.10;37.09
67054;SHT31;53960;51.826;5.850;2023-06-04T13:54:48;24.03;37.03
67054;SHT31;53960;51.826;5.850;2023-06-04T13:57:14;23.96;37.80
67054;SHT31;53960;51.826;5.850;2023-06-04T13:59:39;24.08;37.51
67054;SHT31;53960;51.826;5.850;2023-06-04T14:02:05;24.08;37.29
67054;SHT31;53960;51.826;5.850;2023-06-04T14:04:31;24.01;36.97
67054;SHT31;53960;51.826;5.850;2023-06-04T14:06:57;23.95;37.62
67054;SHT31;53960;51.826;5.850;2023-06-04T14:09:22;23.83;37.68
67054;SHT31;53960;51.826;5.850;2023-06-04T14:11:47;23.86;37.31
67054;SHT31;53960;51.826;5.850;2023-06-04T14:14:17;24.01;37.69
67054;SHT31;53960;51.826;5.850;2023-06-04T14:16:43;24.05;37.11
67054;SHT31;53960;51.826;5.850;2023-06-04T14:19:09;24.10;37.86
67054;SHT31;53960;51.826;5.850;2023-06-04T14:21:34;24.19;37.49
67054;SHT31;53960;51.826;5.850;2023-06-04T14:24:01;24.13;37.14
67054;SHT31;53960;51.826;5.850;2023-06-04T14:26:26;24.09;38.04
67054;SHT31;53960;51.826;5.850;2023-06-04T14:28:51;24.08;37.54
67054;SHT31;53960;51.826;5.850;2023-06-04T14:31:17;24.02;37.48
67054;SHT31;53960;51.826;5.850;2023-06-04T14:33:42;24.14;37.81
67054;SHT31;53960;51.826;5.850;2023-06-04T14:36:07;24.17;37.96
67054;SHT31;53960;51.826;5.850;2023-06-04T14:38:33;24.30;37.70
67054;SHT31;53960;51.826;5.850;2023-06-04T14:40:59;24.33;37.33
67054;SHT31;53960;51.826;5.850;2023-06-04T14:43:24;24.30;38.29
67054;SHT31;53960;51.826;5.850;2023-06-04T14:45:49;24.27;37.86
67054;SHT31;53960;51.826;5.850;2023-06-04T14:48:15;24.23;37.64
67054;SHT31;53960;51.826;5.850;2023-06-04T14:50:40;24.10;37.61
67054;SHT31;53960;51.826;5.850;2023-06-04T14:53:06;24.06;37.40
67054;SHT31;53960;51.826;5.850;2023-06-04T14:55:33;24.23;38.97
67054;SHT31;53960;51.826;5.850;2023-06-04T14:57:59;24.33;37.93
67054;SHT31;53960;51.826;5.850;2023-06-04T15:00:24;24.41;38.11
67054;SHT31;53960;51.826;5.850;2023-06-04T15:02:50;24.39;38.02
67054;SHT31;53960;51.826;5.850;2023-06-04T15:05:15;24.53;37.28
67054;SHT31;53960;51.826;5.850;2023-06-04T15:07:40;24.63;37.53
67054;SHT31;53960;51.826;5.850;2023-06-04T15:10:06;24.60;37.33
67054;SHT31;53960;51.826;5.850;2023-06-04T15:12:32;24.60;37.43
67054;SHT31;53960;51.826;5.850;2023-06-04T15:15:05;24.43;37.46
67054;SHT31;53960;51.826;5.850;2023-06-04T15:17:30;24.40;36.96
67054;SHT31;53960;51.826;5.850;2023-06-04T15:19:56;24.43;37.68
67054;SHT31;53960;51.826;5.850;2023-06-04T15:22:21;24.41;36.91
67054;SHT31;53960;51.826;5.850;2023-06-04T15:24:47;24.44;36.66
67054;SHT31;53960;51.826;5.850;2023-06-04T15:27:12;24.49;37.13
67054;SHT31;53960;51.826;5.850;2023-06-04T15:29:37;24.51;37.06